Airfield :
LOGIN :

Register | Disclaimer

   EN    FR    IT 

 










Legend :    VFR   Marginal VFR   IFR   Intensive IFR   Very Intensive IFR
Visi :
Ceiling :
>= 8 km
>= 3000ft
5 to 8 km
1000 to 3000 ft
1500m to 5 km
500 to 1000 ft
800 to 1500m
200 to 500 ft
< 800m
< 200 ft
Symbols :   Thunderstorms  Fog  Heavy snow  Heavy precipitations  Wind > 20 kt
SIGMETs :     Misc.  Thunderstorms  Icing  Turbulence  Mountain Waves  Volcanic Ashes







- Airport Elevation : 62 ft
- IATA code : TAN


GMTT - Tanger Ibn Batouta

CURRENT METAR :
  • 220900Z 11007KT 8000 FEW010 SCT200 15/09 Q1017 NOSIG

EXPIRED METARs :
  • 220830Z 11007KT 8000 FEW010 SCT200 13/09 Q1017 NOSIG
  • 220800Z 11007KT 8000 FEW010 SCT200 12/08 Q1017 NOSIG
  • 220730Z 10005KT 8000 FEW010 11/08 Q1016 NOSIG
  • 220700Z 09009KT 8000 FEW010 10/07 Q1016 NOSIG
  • 220630Z 12006KT 8000 FEW010 10/07 Q1016 NOSIG

TAF TAF GMTT
Valid from the 22 at 06:00 until the 23 at 12:00 UTC


220500Z 2206/2312 10010KT 6000 FEW010
TEMPO 2211/2218 32008KT
No reported NOTAMs for that airfield.



MET'MAP, your aeronautical weather chart ! - Copyright ORBIFLY December 2007 - Disclaimer

ORBIFLY MET'MAP TEAM :

Programming & Development : Alexandra Zaïnal
Concept & Development : Baudouin d'Aumeries
Co-Development & Prog : Marc-Olivier Méhu
Technical & hardware support : Manuel Goepfert

Contact : metmap@orbifly.com




SOURCES & CREDITS :

   NOAA